createdAt,value
2023-05-13T00:00:48.656Z,99.9
2023-05-13T00:04:52.379Z,99.9
2023-05-13T00:17:33.609Z,99.9
2023-05-13T00:23:39.161Z,99.9
2023-05-13T00:25:41.062Z,99.9
2023-05-13T00:27:46.076Z,99.9
2023-05-13T00:29:48.094Z,99.9
2023-05-13T00:31:49.944Z,99.9
2023-05-13T00:33:51.738Z,99.9
2023-05-13T00:35:53.648Z,99.9
2023-05-13T00:37:55.577Z,99.9
2023-05-13T00:39:57.440Z,99.9
2023-05-13T00:46:06.346Z,99.9
2023-05-13T00:48:08.143Z,99.9
2023-05-13T00:50:10.036Z,99.9
2023-05-13T00:52:11.941Z,99.9
2023-05-13T00:54:13.796Z,99.9
2023-05-13T01:01:25.184Z,99.9
2023-05-13T01:03:27.047Z,99.9
2023-05-13T01:05:28.907Z,99.9
2023-05-13T01:07:30.808Z,99.9
2023-05-13T01:09:35.863Z,99.9
2023-05-13T01:11:37.729Z,99.9
2023-05-13T01:13:39.657Z,99.9
2023-05-13T01:15:41.554Z,99.9
2023-05-13T01:19:45.350Z,99.9
2023-05-13T01:21:47.229Z,99.9
2023-05-13T01:23:52.292Z,99.9
2023-05-13T01:25:54.151Z,99.9
2023-05-13T01:27:56.064Z,99.9
2023-05-13T01:34:01.701Z,99.9
2023-05-13T01:36:03.615Z,99.9
2023-05-13T01:38:08.778Z,99.9
2023-05-13T01:40:20.320Z,99.9
2023-05-13T01:46:16.374Z,99.9
2023-05-13T01:48:18.351Z,99.9
2023-05-13T01:50:20.618Z,99.9
2023-05-13T01:52:25.352Z,99.9
2023-05-13T01:54:27.281Z,99.9
2023-05-13T01:56:29.163Z,99.9
2023-05-13T01:57:31.703Z,99.9
2023-05-13T02:07:44.704Z,99.9
2023-05-13T02:11:48.685Z,99.9
2023-05-13T02:13:50.734Z,99.9
2023-05-13T02:15:52.588Z,99.9
2023-05-13T02:17:54.644Z,99.9
2023-05-13T02:19:59.634Z,99.9
2023-05-13T02:36:18.665Z,99.9
2023-05-13T02:38:20.645Z,99.9
2023-05-13T02:40:22.869Z,99.9
2023-05-13T02:42:24.659Z,99.9
2023-05-13T02:44:26.642Z,99.9
2023-05-13T02:48:33.895Z,99.9
2023-05-13T02:52:37.927Z,99.9
2023-05-13T02:53:40.507Z,99.9
2023-05-13T02:55:42.534Z,99.9
2023-05-13T02:57:44.540Z,99.9
2023-05-13T02:59:46.527Z,99.9
2023-05-13T03:03:53.802Z,99.9
2023-05-13T03:12:01.778Z,99.9
2023-05-13T03:16:09.041Z,99.9
2023-05-13T03:20:13.083Z,99.9
2023-05-13T03:24:17.046Z,99.9
2023-05-13T03:26:19.088Z,99.9
2023-05-13T03:28:21.040Z,99.9
2023-05-13T03:30:26.276Z,99.9
2023-05-13T03:32:28.336Z,99.9
2023-05-13T03:36:33.867Z,99.9
2023-05-13T03:42:39.804Z,99.9
2023-05-13T03:53:19.868Z,99.9
2023-05-13T03:55:21.883Z,99.9
2023-05-13T03:59:29.116Z,99.9
2023-05-13T04:03:33.164Z,99.9
2023-05-13T04:07:37.125Z,99.9
2023-05-13T04:15:48.383Z,99.9
2023-05-13T04:17:50.413Z,99.9
2023-05-13T04:19:52.352Z,99.9
2023-05-13T04:21:54.366Z,99.9
2023-05-13T04:26:01.595Z,99.9
2023-05-13T04:28:03.621Z,99.9
2023-05-13T04:30:05.570Z,99.9
2023-05-13T04:32:07.730Z,99.9
2023-05-13T04:36:13.561Z,99.9
2023-05-13T04:38:13.560Z,99.9
2023-05-13T04:40:18.842Z,99.9
2023-05-13T04:42:20.805Z,99.9
2023-05-13T04:44:22.828Z,99.9
2023-05-13T04:45:25.436Z,99.9
2023-05-13T04:47:27.434Z,99.9
2023-05-13T04:51:31.338Z,99.9
2023-05-13T04:59:42.380Z,99.9
2023-05-13T05:01:44.505Z,99.9
2023-05-13T05:20:05.711Z,99.9
2023-05-13T05:22:10.952Z,99.9
2023-05-13T05:24:12.939Z,99.9
2023-05-13T05:41:34.614Z,99.9
2023-05-13T05:43:36.610Z,99.9
2023-05-13T05:45:38.651Z,99.9
2023-05-13T05:47:40.652Z,99.9
2023-05-13T05:49:45.844Z,99.9
2023-05-13T05:51:47.858Z,99.9
2023-05-13T05:53:49.887Z,99.9
2023-05-13T05:55:53.151Z,99.9
2023-05-13T05:57:53.742Z,99.9
2023-05-13T05:59:55.683Z,99.9
2023-05-13T06:01:57.684Z,99.9
2023-05-13T06:04:02.878Z,99.9
2023-05-13T06:06:04.726Z,99.9
2023-05-13T06:08:06.615Z,99.9
2023-05-13T06:10:08.612Z,99.9
2023-05-13T06:12:10.537Z,99.9
2023-05-13T06:14:12.432Z,99.9
2023-05-13T06:16:14.377Z,99.9
2023-05-13T06:20:21.516Z,99.9
2023-05-13T06:22:23.125Z,99.9
2023-05-13T06:24:25.051Z,99.9
2023-05-13T06:26:26.913Z,99.9
2023-05-13T06:28:28.834Z,99.9
2023-05-13T06:30:30.759Z,99.9
2023-05-13T06:36:39.567Z,99.9
2023-05-13T06:37:42.080Z,99.9
2023-05-13T06:39:44.027Z,99.9
2023-05-13T06:43:47.759Z,99.9
2023-05-13T06:45:52.801Z,99.9
2023-05-13T06:47:54.738Z,99.9
2023-05-13T06:49:56.589Z,99.9
2023-05-13T06:51:58.493Z,99.9
2023-05-13T06:58:04.120Z,99.9
2023-05-13T07:02:11.028Z,99.9
2023-05-13T07:04:12.911Z,99.9
2023-05-13T07:14:25.399Z,99.9
2023-05-13T07:45:26.187Z,99.9
2023-05-13T07:47:28.078Z,99.9
2023-05-13T07:51:31.729Z,99.9
2023-05-13T07:55:38.581Z,99.9
2023-05-13T07:57:40.413Z,99.9
2023-05-13T07:59:44.560Z,99.9
2023-05-13T08:03:46.113Z,99.9
2023-05-13T08:07:49.576Z,99.9
2023-05-13T08:26:12.293Z,99.9
2023-05-13T08:28:14.100Z,99.9
2023-05-13T08:29:16.575Z,99.9
2023-05-13T08:49:37.764Z,99.9
2023-05-13T08:51:42.727Z,99.9
2023-05-13T09:10:02.190Z,99.9
2023-05-13T09:12:03.999Z,99.9
2023-05-13T09:14:05.763Z,99.9
2023-05-13T09:16:07.625Z,99.9
2023-05-13T09:18:09.519Z,99.9
2023-05-13T09:20:14.325Z,99.9
2023-05-13T09:24:17.886Z,99.9
2023-05-13T09:25:20.711Z,99.9
2023-05-13T09:35:33.973Z,99.9
2023-05-13T09:37:35.768Z,99.9
2023-05-13T09:55:54.931Z,98
2023-05-13T09:57:56.690Z,98.3
2023-05-13T09:59:58.424Z,98.2
2023-05-13T10:02:03.406Z,98.2
2023-05-13T10:04:05.159Z,98.2
2023-05-13T10:12:12.208Z,97.2
2023-05-13T10:16:18.936Z,96.9
2023-05-13T10:18:20.701Z,96.9
2023-05-13T10:20:22.630Z,96.5
2023-05-13T10:21:24.871Z,96
2023-05-13T10:25:28.396Z,94.3
2023-05-13T10:27:30.156Z,94.5
2023-05-13T10:29:35.082Z,93.8
2023-05-13T10:31:36.910Z,93.6
2023-05-13T10:33:38.634Z,93.6
2023-05-13T10:39:43.907Z,84.5
2023-05-13T10:41:45.636Z,84.6
2023-05-13T10:49:55.855Z,81
2023-05-13T10:51:57.583Z,80.9
2023-05-13T10:53:59.341Z,80.7
2023-05-13T11:00:07.792Z,76.7
2023-05-13T11:02:09.556Z,75.9
2023-05-13T11:06:13.038Z,75
2023-05-13T11:08:14.756Z,72.9
2023-05-13T11:12:21.420Z,72.1
2023-05-13T11:14:23.132Z,71.2
2023-05-13T11:16:24.955Z,69.1
2023-05-13T11:18:53.349Z,62.1
2023-05-13T11:20:54.981Z,61.9
2023-05-13T11:22:56.744Z,61.8
2023-05-13T11:25:01.665Z,59.9
2023-05-13T11:27:03.350Z,58.2
2023-05-13T11:29:05.178Z,57
2023-05-13T11:31:06.896Z,57.1
2023-05-13T11:33:08.658Z,56.7
2023-05-13T11:35:10.372Z,55.5
2023-05-13T11:43:20.488Z,52
2023-05-13T11:45:22.357Z,51.9
2023-05-13T11:59:47.591Z,50.2
2023-05-13T12:09:49.424Z,47.4
2023-05-13T12:12:53.600Z,46.9
2023-05-13T12:14:55.344Z,46
2023-05-13T12:16:57.041Z,46.2
2023-05-13T12:18:58.856Z,46
2023-05-13T12:21:03.688Z,46.2
2023-05-13T12:23:05.379Z,46
2023-05-13T12:25:07.123Z,44.5
2023-05-13T12:27:11.416Z,40.7
2023-05-13T12:29:10.582Z,45.1
2023-05-13T12:31:12.298Z,43.7
2023-05-13T12:33:13.979Z,44
2023-05-13T12:35:18.873Z,43.7
2023-05-13T12:37:20.571Z,43.8
2023-05-13T12:39:22.322Z,44.5
2023-05-13T12:41:24.019Z,44
2023-05-13T12:57:40.879Z,43.6
2023-05-13T13:03:50.367Z,44.6
2023-05-13T13:05:50.901Z,44.5
2023-05-13T13:07:52.614Z,44.5
2023-05-13T13:08:55.033Z,44.6
2023-05-13T13:17:05.061Z,44.2
2023-05-13T13:19:06.795Z,43.4
2023-05-13T13:21:08.470Z,43.5
2023-05-13T13:23:10.176Z,43.6
2023-05-13T13:27:13.548Z,43.2
2023-05-13T13:29:15.238Z,43
2023-05-13T13:31:20.153Z,42.7
2023-05-13T13:33:21.954Z,41.2
2023-05-13T13:37:25.242Z,41.4
2023-05-13T13:45:35.267Z,42.7
2023-05-13T13:47:36.982Z,42.9
2023-05-13T13:49:38.703Z,42.8
2023-05-13T13:53:42.103Z,44.8
2023-05-13T13:55:43.792Z,44.4
2023-05-13T13:59:50.372Z,44
2023-05-13T14:01:52.199Z,44.1
2023-05-13T14:03:53.989Z,43.8
2023-05-13T14:04:56.221Z,43.7
2023-05-13T14:06:57.968Z,43.4
2023-05-13T14:13:06.254Z,42.2
2023-05-13T14:15:07.928Z,42.3
2023-05-13T14:17:10.698Z,42
2023-05-13T14:19:11.557Z,42.2
2023-05-13T14:21:13.075Z,41.9
2023-05-13T14:23:14.783Z,42.1
2023-05-13T14:25:16.541Z,42.5
2023-05-13T14:27:21.419Z,42.9
2023-05-13T14:29:23.075Z,42.9
2023-05-13T14:31:24.820Z,43
2023-05-13T14:33:26.458Z,42.3
2023-05-13T14:35:28.151Z,42.4
2023-05-13T14:45:39.808Z,40.2
2023-05-13T14:47:41.466Z,39.4
2023-05-13T15:02:22.972Z,40.1
2023-05-13T15:14:35.933Z,39.6
2023-05-13T15:16:37.675Z,39.8
2023-05-13T15:22:47.281Z,39.8
2023-05-13T15:28:52.180Z,40.1
2023-05-13T15:32:55.499Z,40.7
2023-05-13T15:34:57.126Z,40.6
2023-05-13T15:39:03.602Z,39.8
2023-05-13T15:45:08.548Z,39.3
2023-05-13T15:55:20.059Z,39.7
2023-05-13T15:56:22.414Z,39.6
2023-05-13T16:20:48.974Z,43
2023-05-13T16:22:50.626Z,42.9
2023-05-13T16:24:52.368Z,43.2
2023-05-13T16:26:54.109Z,42.8
2023-05-13T16:28:55.807Z,42.8
2023-05-13T16:30:58.731Z,40.7
2023-05-13T16:33:02.493Z,39.2
2023-05-13T16:35:04.157Z,39.7
2023-05-13T16:37:05.887Z,40.6
2023-05-13T16:39:07.687Z,41.5
2023-05-13T16:41:09.391Z,41.8
2023-05-13T16:43:11.130Z,42.1
2023-05-13T16:45:12.883Z,42.6
2023-05-13T16:47:17.792Z,42.8
2023-05-13T16:52:23.787Z,43.1
2023-05-13T16:54:25.509Z,42.9
2023-05-13T16:56:27.250Z,42.7
2023-05-13T16:58:28.991Z,42.8
2023-05-13T17:00:33.930Z,42.7
2023-05-13T17:02:35.812Z,42.8
2023-05-13T17:04:37.446Z,42.7
2023-05-13T17:06:39.208Z,42.9
2023-05-13T17:08:40.993Z,43.1
2023-05-13T17:10:42.738Z,43
2023-05-13T17:12:44.521Z,43.1
2023-05-13T17:14:49.446Z,43.2
2023-05-13T17:16:51.212Z,43.2
2023-05-13T17:18:53.036Z,42.9
2023-05-13T17:45:22.507Z,45.5
2023-05-13T17:47:24.225Z,45.9
2023-05-13T17:48:26.742Z,46.1
2023-05-13T17:50:28.490Z,46.4
2023-05-13T17:52:30.287Z,46.8
2023-05-13T17:54:32.054Z,47
2023-05-13T17:56:37.036Z,47.2
2023-05-13T17:58:38.839Z,47.1
2023-05-13T18:00:40.628Z,46.9
2023-05-13T18:02:42.464Z,47
2023-05-13T18:04:44.198Z,47.8
2023-05-13T18:08:47.819Z,47.9
2023-05-13T18:10:52.749Z,48
2023-05-13T18:19:00.145Z,48.3
2023-05-13T18:23:03.609Z,50.4
2023-05-13T18:25:08.592Z,52
2023-05-13T18:27:10.372Z,52.2
2023-05-13T18:33:15.811Z,55.7
2023-05-13T18:35:17.632Z,57.8
2023-05-13T18:37:19.460Z,59.1
2023-05-13T18:41:26.278Z,60
2023-05-13T18:43:28.079Z,61.2
2023-05-13T18:47:58.393Z,63.5
2023-05-13T18:52:05.148Z,64.6
2023-05-13T18:54:07.011Z,64.6
2023-05-13T18:56:08.799Z,64.7
2023-05-13T19:06:21.113Z,64.2
2023-05-13T19:08:22.934Z,64.2
2023-05-13T19:10:24.953Z,64.1
2023-05-13T19:12:26.622Z,64.2
2023-05-13T19:14:28.440Z,64.1
2023-05-13T19:38:56.869Z,70.8
2023-05-13T19:39:59.355Z,71.3
2023-05-13T19:50:11.790Z,75
2023-05-13T19:52:13.549Z,75.3
2023-05-13T19:56:17.255Z,77.6
2023-05-13T20:06:29.625Z,83.8
2023-05-13T20:08:31.487Z,85.5
2023-05-13T20:10:33.300Z,80.7
2023-05-13T20:12:35.181Z,86.9
2023-05-13T20:14:37.011Z,87.2
2023-05-13T20:16:42.143Z,87.5
2023-05-13T20:18:44.075Z,87.7
2023-05-13T20:22:47.551Z,88.9
2023-05-13T20:24:49.400Z,89.8
2023-05-13T20:28:53.125Z,90.7
2023-05-13T20:33:00.000Z,91.2
2023-05-13T20:36:04.360Z,91.3
2023-05-13T20:38:06.235Z,91.5
2023-05-13T20:40:08.129Z,91.8
2023-05-13T20:42:09.955Z,92.3
2023-05-13T20:44:14.980Z,93.4
2023-05-13T20:46:17.105Z,93.8
2023-05-13T20:50:20.830Z,94.9
2023-05-13T20:52:22.510Z,95.7
2023-05-13T20:56:26.204Z,98.2
2023-05-13T20:58:31.224Z,98.9
2023-05-13T21:00:33.056Z,99.4
2023-05-13T21:02:34.956Z,99.6
2023-05-13T21:04:36.804Z,99.8
2023-05-13T21:06:38.650Z,99.9
2023-05-13T21:08:40.518Z,99.9
2023-05-13T21:10:43.968Z,99.9
2023-05-13T21:12:48.929Z,99.9
2023-05-13T21:14:50.838Z,99.9
2023-05-13T21:16:52.692Z,99.9
2023-05-13T21:18:54.632Z,99.9
2023-05-13T21:20:56.406Z,99.9
2023-05-13T21:22:58.306Z,99.9
2023-05-13T21:25:00.199Z,99.9
2023-05-13T21:27:05.183Z,99.9
2023-05-13T21:32:11.459Z,99.9
2023-05-13T21:34:13.324Z,99.9
2023-05-13T21:36:15.219Z,99.9
2023-05-13T21:38:17.085Z,99.9
2023-05-13T21:40:22.310Z,99.9
2023-05-13T21:42:23.993Z,99.9
2023-05-13T21:44:25.885Z,99.9
2023-05-13T21:46:27.750Z,99.9
2023-05-13T21:48:29.663Z,99.9
2023-05-13T21:50:31.510Z,99.9
2023-05-13T21:52:33.377Z,99.9
2023-05-13T21:54:38.424Z,99.9
2023-05-13T21:56:40.304Z,99.9
2023-05-13T21:58:42.210Z,99.9
2023-05-13T22:00:44.120Z,99.9
2023-05-13T22:02:46.119Z,99.9
2023-05-13T22:04:47.862Z,99.9
2023-05-13T22:06:49.779Z,99.9
2023-05-13T22:08:54.796Z,99.9
2023-05-13T22:10:56.698Z,99.9
2023-05-13T22:12:58.592Z,99.9
2023-05-13T22:15:00.469Z,99.9
2023-05-13T22:19:04.386Z,99.9
2023-05-13T22:21:06.127Z,99.9
2023-05-13T22:23:11.180Z,99.9
2023-05-13T22:25:13.037Z,99.9
2023-05-13T22:27:14.952Z,99.9
2023-05-13T22:29:43.534Z,99.9
2023-05-13T22:31:45.423Z,99.9
2023-05-13T22:33:47.373Z,99.9
2023-05-13T22:35:52.397Z,99.9
2023-05-13T22:39:56.166Z,99.9
2023-05-13T22:41:58.026Z,99.9
2023-05-13T22:43:59.941Z,99.9
2023-05-13T22:46:01.862Z,99.9
2023-05-13T22:48:03.755Z,99.9
2023-05-13T22:50:08.759Z,99.9
2023-05-13T22:52:10.646Z,99.9
2023-05-13T22:54:12.530Z,99.9
2023-05-13T22:56:14.426Z,99.9
2023-05-13T22:58:16.343Z,99.9
2023-05-13T23:00:18.237Z,99.9
2023-05-13T23:02:20.158Z,99.9
2023-05-13T23:06:27.107Z,99.9
2023-05-13T23:08:28.968Z,99.9
2023-05-13T23:10:30.854Z,99.9
2023-05-13T23:12:32.758Z,99.9
2023-05-13T23:20:43.506Z,99.9
2023-05-13T23:23:47.927Z,99.9
2023-05-13T23:25:49.831Z,99.9
2023-05-13T23:27:51.725Z,99.9
2023-05-13T23:29:53.572Z,99.9
2023-05-13T23:31:58.812Z,99.9
2023-05-13T23:34:00.538Z,99.9
2023-05-13T23:36:02.465Z,99.9
2023-05-13T23:38:04.370Z,99.9
2023-05-13T23:42:08.137Z,99.9
2023-05-13T23:50:18.913Z,99.9
2023-05-13T23:52:20.799Z,99.9
